Riverhurst, Canada
Current Conditions -  °F | °C
As of 12:00 PM on Tuesday 21 Oct 2014 (Local Time) from CYYN Reporting Station
Clear Clear  
Wind Chill: 66°   Ceiling: Unl
Heat Index: 66°   Visibility: 9mi
Dew Point: 37°   Wind: 8mph
Humidity: 35%   Direction: 200°SSW
Pressure: 29.56"   Gusts: NA
Location:  50.92°N, 106.85°W
Report Text: CYYN 211800Z AUTO 20007KT 170V230 9SM CLR 19/03 A2956 RMK SLP007 DENSITY ALT 4100FT
Loading
Personal Weather Stations






























Interactive Weather Map
Tropical Storm Tracking
New forecast layout! Learn more

10-Day Weather Forecast

Advertisements
Track Severe Weather on mobile